Time;durP1;ratioP1;P1;durP2;ratioP2;P2;SDS_P1;SDS_P2;PMS_P1;PMS_P2;Temp;Humidity;BMP_temperature;BMP_pressure;BME280_temperature;BME280_humidity;BME280_pressure;Samples;Min_cycle;Max_cycle;Signal;HPM_P1;HPM_P2
2023/01/25 00:00:09;;;;;;;19.23;13.53;;;;;;;;;;5044553;28;20445;-75
2023/01/25 00:02:35;;;;;;;16.83;14.30;;;;;;;;;;5067192;28;20927;-76
2023/01/25 00:05:01;;;;;;;18.47;15.07;;;;;;;;;;5083680;28;20289;-75
2023/01/25 00:07:27;;;;;;;18.48;13.82;;;;;;;;;;5075187;28;20433;-75
2023/01/25 00:09:53;;;;;;;17.27;12.47;;;;;;;;;;5060760;28;20217;-75
2023/01/25 00:12:19;;;;;;;20.63;14.85;;;;;;;;;;5070889;28;20448;-75
2023/01/25 00:14:45;;;;;;;20.37;15.67;;;;;;;;;;5072158;28;20190;-75
2023/01/25 00:17:11;;;;;;;20.65;15.35;;;;;;;;;;5088180;28;20425;-76
2023/01/25 00:19:37;;;;;;;17.70;15.03;;;;;;;;;;5061486;28;20200;-76
2023/01/25 00:22:03;;;;;;;25.40;16.85;;;;;;;;;;5074727;28;20843;-76
2023/01/25 00:24:29;;;;;;;21.60;16.17;;;;;;;;;;5065895;28;20195;-76
2023/01/25 00:26:55;;;;;;;19.27;14.67;;;;;;;;;;5085159;28;20912;-76
2023/01/25 00:29:21;;;;;;;20.87;16.07;;;;;;;;;;5068769;28;20436;-75
2023/01/25 00:31:50;;;;;;;20.70;17.00;;;;;;;;;;5066166;28;20479;-75
2023/01/25 00:34:25;;;;;;;23.92;17.17;;;;;;;;;;5079950;28;20472;-76
2023/01/25 00:36:51;;;;;;;21.35;14.55;;;;;;;;;;5067160;28;20204;-76
2023/01/25 00:39:17;;;;;;;24.60;17.13;;;;;;;;;;5080069;28;20194;-75
2023/01/25 00:41:43;;;;;;;20.13;15.48;;;;;;;;;;5087100;28;20438;-76
2023/01/25 00:44:09;;;;;;;27.48;17.63;;;;;;;;;;5069594;28;20206;-76
2023/01/25 00:46:36;;;;;;;22.85;15.13;;;;;;;;;;5073349;28;20622;-76
2023/01/25 00:49:01;;;;;;;25.90;16.48;;;;;;;;;;5066704;28;20539;-76
2023/01/25 00:51:27;;;;;;;26.70;17.77;;;;;;;;;;5064390;28;20214;-75
2023/01/25 00:53:53;;;;;;;23.08;16.75;;;;;;;;;;5070652;28;20826;-75
2023/01/25 00:56:19;;;;;;;27.77;16.97;;;;;;;;;;5088922;28;20285;-77
2023/01/25 00:58:45;;;;;;;26.27;16.87;;;;;;;;;;5071526;28;20417;-76
2023/01/25 01:01:12;;;;;;;27.73;18.80;;;;;;;;;;5072090;28;20412;-75
2023/01/25 01:03:38;;;;;;;20.65;16.55;;;;;;;;;;5056482;28;20432;-76
2023/01/25 01:06:11;;;;;;;23.52;16.83;;;;;;;;;;5072059;28;20265;-75
2023/01/25 01:08:41;;;;;;;21.95;15.13;;;;;;;;;;5071328;28;20813;-75
2023/01/25 01:11:08;;;;;;;22.90;15.40;;;;;;;;;;5067903;28;20275;-76
2023/01/25 01:13:34;;;;;;;24.13;17.15;;;;;;;;;;5070040;28;20197;-76
2023/01/25 01:16:04;;;;;;;24.53;17.70;;;;;;;;;;5066724;28;20224;-76
2023/01/25 01:18:41;;;;;;;26.20;18.08;;;;;;;;;;5072649;28;20819;-76
2023/01/25 01:21:10;;;;;;;26.92;17.70;;;;;;;;;;5089894;28;20173;-76
2023/01/25 01:23:36;;;;;;;29.13;17.45;;;;;;;;;;5082093;28;20197;-76
2023/01/25 01:26:03;;;;;;;22.70;16.02;;;;;;;;;;5085363;28;20223;-77
2023/01/25 01:28:30;;;;;;;24.00;17.75;;;;;;;;;;5092796;28;20570;-75
2023/01/25 01:31:00;;;;;;;26.10;17.33;;;;;;;;;;5050384;28;20210;-76
2023/01/25 01:33:26;;;;;;;22.85;15.35;;;;;;;;;;5079912;28;20202;-75
2023/01/25 01:35:52;;;;;;;24.02;16.85;;;;;;;;;;5090986;28;20212;-76
2023/01/25 01:38:18;;;;;;;26.20;17.97;;;;;;;;;;5073728;28;20236;-76
2023/01/25 01:40:45;;;;;;;28.27;19.03;;;;;;;;;;5089002;28;20484;-76
2023/01/25 01:43:22;;;;;;;30.80;19.88;;;;;;;;;;5061832;28;20504;-75
2023/01/25 01:45:48;;;;;;;28.73;19.65;;;;;;;;;;5081057;28;20174;-75
2023/01/25 01:48:34;;;;;;;28.00;18.98;;;;;;;;;;5072364;28;20357;-75
2023/01/25 01:51:21;;;;;;;25.38;18.48;;;;;;;;;;5061264;28;20301;-76
2023/01/25 01:53:52;;;;;;;26.40;18.08;;;;;;;;;;5035469;28;20342;-76
2023/01/25 01:56:21;;;;;;;29.67;19.02;;;;;;;;;;5081566;28;20784;-75
2023/01/25 01:58:50;;;;;;;28.00;18.77;;;;;;;;;;5067438;28;20190;-75
2023/01/25 02:01:16;;;;;;;30.95;20.10;;;;;;;;;;5077733;28;20659;-75
2023/01/25 02:03:42;;;;;;;27.63;18.17;;;;;;;;;;5077887;28;20688;-76
2023/01/25 02:06:12;;;;;;;25.48;17.70;;;;;;;;;;5074413;28;20239;-75
2023/01/25 02:08:39;;;;;;;29.60;19.58;;;;;;;;;;5078038;28;20193;-76
2023/01/25 02:11:06;;;;;;;26.40;18.00;;;;;;;;;;5096951;28;20221;-76
2023/01/25 02:13:32;;;;;;;28.10;17.45;;;;;;;;;;5069483;28;20198;-76
2023/01/25 02:15:58;;;;;;;26.27;19.20;;;;;;;;;;5079043;28;20228;-76
2023/01/25 02:18:25;;;;;;;26.70;19.00;;;;;;;;;;5069088;28;20264;-75
2023/01/25 02:20:52;;;;;;;30.90;19.75;;;;;;;;;;5069091;28;20171;-75
2023/01/25 02:23:31;;;;;;;26.95;18.10;;;;;;;;;;5076007;28;20194;-75
2023/01/25 02:25:58;;;;;;;27.33;19.58;;;;;;;;;;5086545;28;20167;-75
2023/01/25 02:28:30;;;;;;;28.65;18.63;;;;;;;;;;5067597;28;20194;-76
2023/01/25 02:30:56;;;;;;;29.90;19.20;;;;;;;;;;5049956;28;20259;-75
2023/01/25 02:33:23;;;;;;;27.73;18.63;;;;;;;;;;5066427;28;20206;-75
2023/01/25 02:35:50;;;;;;;28.05;18.50;;;;;;;;;;5068523;28;20408;-75
2023/01/25 02:38:18;;;;;;;27.77;17.30;;;;;;;;;;5085211;28;20661;-76
2023/01/25 02:40:46;;;;;;;27.27;19.10;;;;;;;;;;5074496;28;20198;-76
2023/01/25 02:43:12;;;;;;;27.58;18.60;;;;;;;;;;5073904;28;20522;-75
2023/01/25 02:45:38;;;;;;;27.73;19.58;;;;;;;;;;5071062;28;20186;-76
2023/01/25 02:48:04;;;;;;;24.90;17.67;;;;;;;;;;5083655;28;20185;-75
2023/01/25 02:50:30;;;;;;;30.48;18.73;;;;;;;;;;5076584;28;20430;-75
2023/01/25 02:52:56;;;;;;;31.23;18.63;;;;;;;;;;5071701;28;20703;-76
2023/01/25 02:55:22;;;;;;;27.63;18.30;;;;;;;;;;5056339;28;21159;-75
2023/01/25 02:57:48;;;;;;;25.63;18.10;;;;;;;;;;5083635;28;20686;-75
2023/01/25 03:00:14;;;;;;;27.42;18.20;;;;;;;;;;5063982;28;20416;-75
2023/01/25 03:02:40;;;;;;;27.27;18.75;;;;;;;;;;5067859;28;20936;-76
2023/01/25 03:05:06;;;;;;;28.37;19.80;;;;;;;;;;5074486;28;20265;-77
2023/01/25 03:07:32;;;;;;;31.35;20.60;;;;;;;;;;5067247;28;20428;-76
2023/01/25 03:09:58;;;;;;;24.65;18.17;;;;;;;;;;5068153;28;20688;-75
2023/01/25 03:12:24;;;;;;;31.83;19.13;;;;;;;;;;5029745;28;20220;-75
2023/01/25 03:14:50;;;;;;;29.10;18.30;;;;;;;;;;5022497;28;20481;-75
2023/01/25 03:17:16;;;;;;;25.77;17.83;;;;;;;;;;5033727;28;20519;-75
2023/01/25 03:19:42;;;;;;;32.42;19.60;;;;;;;;;;5041409;28;20433;-76
2023/01/25 03:22:09;;;;;;;28.57;18.03;;;;;;;;;;5045235;28;20616;-75
2023/01/25 03:24:36;;;;;;;27.23;18.45;;;;;;;;;;5042145;28;20959;-76
2023/01/25 03:27:12;;;;;;;30.25;19.25;;;;;;;;;;5026518;28;20188;-75
2023/01/25 03:29:39;;;;;;;41.07;20.27;;;;;;;;;;5036698;28;20761;-75
2023/01/25 03:32:05;;;;;;;37.72;17.98;;;;;;;;;;5018669;28;20809;-74
2023/01/25 03:34:31;;;;;;;26.38;17.42;;;;;;;;;;5043656;28;20187;-76
2023/01/25 03:36:57;;;;;;;32.73;19.30;;;;;;;;;;5033485;28;20260;-75
2023/01/25 03:39:23;;;;;;;27.80;20.10;;;;;;;;;;5040744;28;20785;-76
2023/01/25 03:41:49;;;;;;;26.10;17.20;;;;;;;;;;5045516;28;20539;-75
2023/01/25 03:44:15;;;;;;;29.60;18.10;;;;;;;;;;5025645;28;20450;-76
2023/01/25 03:46:41;;;;;;;27.37;18.73;;;;;;;;;;5024085;28;20409;-75
2023/01/25 03:49:07;;;;;;;26.88;17.55;;;;;;;;;;5042576;28;20427;-75
2023/01/25 03:51:33;;;;;;;25.08;15.75;;;;;;;;;;5032530;28;20203;-76
2023/01/25 03:54:00;;;;;;;25.90;17.88;;;;;;;;;;5036796;28;20188;-76
2023/01/25 03:56:26;;;;;;;28.45;16.92;;;;;;;;;;5042061;28;20485;-75
2023/01/25 03:58:52;;;;;;;27.70;17.07;;;;;;;;;;5050843;28;20195;-76
2023/01/25 04:01:18;;;;;;;28.88;17.25;;;;;;;;;;5036092;28;20951;-76
2023/01/25 04:03:44;;;;;;;26.55;17.10;;;;;;;;;;5028066;28;20568;-74
2023/01/25 04:06:10;;;;;;;27.40;18.43;;;;;;;;;;5029893;28;20401;-74
2023/01/25 04:08:36;;;;;;;27.40;18.03;;;;;;;;;;5049098;28;20437;-75
2023/01/25 04:11:03;;;;;;;32.90;20.38;;;;;;;;;;5034472;28;20799;-76
2023/01/25 04:13:30;;;;;;;28.75;18.23;;;;;;;;;;5052133;28;20194;-76
2023/01/25 04:15:56;;;;;;;22.90;15.60;;;;;;;;;;5050125;28;20223;-75
2023/01/25 04:18:22;;;;;;;30.27;17.70;;;;;;;;;;5059986;28;20193;-75
2023/01/25 04:20:55;;;;;;;30.55;19.52;;;;;;;;;;5043918;28;20280;-75
2023/01/25 04:23:21;;;;;;;26.13;17.13;;;;;;;;;;5060275;28;20197;-75
2023/01/25 04:25:54;;;;;;;30.25;19.17;;;;;;;;;;5044219;28;20682;-75
2023/01/25 04:28:20;;;;;;;30.33;18.55;;;;;;;;;;5055077;28;20294;-76
2023/01/25 04:30:46;;;;;;;33.13;18.45;;;;;;;;;;5050391;28;20281;-75
2023/01/25 04:33:12;;;;;;;27.90;17.50;;;;;;;;;;5047532;28;20220;-75
2023/01/25 04:35:38;;;;;;;33.17;19.47;;;;;;;;;;5045492;28;20452;-76
2023/01/25 04:38:04;;;;;;;30.75;17.40;;;;;;;;;;5051508;28;20787;-76
2023/01/25 04:40:30;;;;;;;27.80;18.40;;;;;;;;;;5064643;28;20193;-76
2023/01/25 04:42:56;;;;;;;32.30;18.15;;;;;;;;;;5057437;28;20191;-76
2023/01/25 04:45:26;;;;;;;26.73;18.07;;;;;;;;;;5059416;28;20726;-76
2023/01/25 04:48:01;;;;;;;30.33;17.70;;;;;;;;;;5058965;28;20977;-76
2023/01/25 04:50:27;;;;;;;34.67;21.05;;;;;;;;;;5057846;28;20467;-77
2023/01/25 04:52:54;;;;;;;34.13;19.57;;;;;;;;;;5050584;28;20361;-76
2023/01/25 04:55:20;;;;;;;27.50;14.45;;;;;;;;;;5044492;28;20429;-76
2023/01/25 04:57:49;;;;;;;33.03;16.60;;;;;;;;;;5048661;28;20203;-76
2023/01/25 05:00:15;;;;;;;29.08;17.83;;;;;;;;;;5054471;28;20192;-74
2023/01/25 05:02:41;;;;;;;31.77;17.65;;;;;;;;;;5056745;28;20182;-76
2023/01/25 05:05:07;;;;;;;28.52;17.95;;;;;;;;;;5061361;28;20255;-76
2023/01/25 05:07:33;;;;;;;33.65;19.67;;;;;;;;;;5052106;28;20241;-76
2023/01/25 05:09:59;;;;;;;33.10;19.30;;;;;;;;;;5068402;28;20674;-75
2023/01/25 05:12:25;;;;;;;34.60;17.37;;;;;;;;;;5057523;28;20439;-76
2023/01/25 05:14:51;;;;;;;33.70;17.23;;;;;;;;;;5060659;28;20519;-76
2023/01/25 05:17:17;;;;;;;31.13;18.77;;;;;;;;;;5056179;28;20381;-76
2023/01/25 05:19:43;;;;;;;35.57;19.17;;;;;;;;;;5073305;28;20411;-77
2023/01/25 05:22:16;;;;;;;34.27;19.10;;;;;;;;;;5057824;28;20792;-76
2023/01/25 05:24:44;;;;;;;35.80;19.65;;;;;;;;;;5048178;28;20421;-76
2023/01/25 05:27:11;;;;;;;35.20;19.00;;;;;;;;;;5047885;28;20172;-75
2023/01/25 05:29:38;;;;;;;29.35;17.50;;;;;;;;;;5058841;28;20524;-75
2023/01/25 05:32:08;;;;;;;31.13;18.67;;;;;;;;;;5062373;28;20238;-75
2023/01/25 05:34:34;;;;;;;37.15;19.42;;;;;;;;;;5062707;28;20202;-75
2023/01/25 05:37:01;;;;;;;30.00;19.00;;;;;;;;;;5060816;28;20245;-75
2023/01/25 05:39:27;;;;;;;41.93;21.03;;;;;;;;;;5070142;28;20193;-75
2023/01/25 05:41:53;;;;;;;36.58;20.15;;;;;;;;;;5061224;28;20452;-76
2023/01/25 05:44:19;;;;;;;36.00;21.60;;;;;;;;;;5066837;28;20171;-75
2023/01/25 05:46:45;;;;;;;32.30;19.80;;;;;;;;;;5056651;28;20957;-76
2023/01/25 05:49:11;;;;;;;33.40;18.37;;;;;;;;;;5069109;28;20379;-75
2023/01/25 05:51:37;;;;;;;36.03;19.77;;;;;;;;;;5051935;28;20465;-75
2023/01/25 05:54:09;;;;;;;30.50;19.40;;;;;;;;;;5047967;28;20419;-75
2023/01/25 05:56:34;;;;;;;39.03;20.00;;;;;;;;;;5052706;28;20890;-75
2023/01/25 05:59:01;;;;;;;33.60;20.77;;;;;;;;;;5057240;28;20269;-76
2023/01/25 06:01:27;;;;;;;36.93;21.17;;;;;;;;;;5056685;28;20508;-75
2023/01/25 06:03:54;;;;;;;34.33;19.67;;;;;;;;;;5055865;28;20410;-76
2023/01/25 06:06:20;;;;;;;32.80;20.00;;;;;;;;;;5070406;28;20869;-75
2023/01/25 06:08:47;;;;;;;27.02;14.95;;;;;;;;;;5057627;28;20230;-76
2023/01/25 06:11:14;;;;;;;29.67;16.80;;;;;;;;;;5055136;28;20955;-76
2023/01/25 06:13:41;;;;;;;30.87;18.50;;;;;;;;;;5047439;28;20412;-75
2023/01/25 06:16:08;;;;;;;35.57;19.67;;;;;;;;;;5058971;28;20415;-75
2023/01/25 06:18:34;;;;;;;29.77;18.70;;;;;;;;;;5052783;28;20799;-76
2023/01/25 06:21:01;;;;;;;33.28;17.70;;;;;;;;;;5055889;28;20449;-76
2023/01/25 06:23:27;;;;;;;27.90;17.33;;;;;;;;;;5052405;28;20245;-77
2023/01/25 06:25:57;;;;;;;33.10;18.95;;;;;;;;;;5056572;28;20191;-76
2023/01/25 06:28:23;;;;;;;30.95;19.15;;;;;;;;;;5047275;28;20245;-75
2023/01/25 06:30:49;;;;;;;33.08;18.63;;;;;;;;;;5050953;28;20222;-77
2023/01/25 06:33:17;;;;;;;29.13;18.47;;;;;;;;;;5044418;28;20607;-76
2023/01/25 06:35:43;;;;;;;35.00;19.77;;;;;;;;;;5049420;28;20964;-77
2023/01/25 06:38:09;;;;;;;29.42;19.13;;;;;;;;;;5045335;28;20206;-76
2023/01/25 06:40:35;;;;;;;32.53;19.27;;;;;;;;;;5055305;28;20188;-76
2023/01/25 06:43:11;;;;;;;32.73;19.70;;;;;;;;;;5051799;28;20291;-76
2023/01/25 06:45:37;;;;;;;31.92;17.00;;;;;;;;;;5053885;28;20496;-75
2023/01/25 06:48:03;;;;;;;31.20;20.70;;;;;;;;;;5049495;28;20191;-76
2023/01/25 06:50:29;;;;;;;34.65;19.67;;;;;;;;;;5052997;28;20265;-77
2023/01/25 06:52:56;;;;;;;29.98;18.00;;;;;;;;;;5057378;28;20655;-76
2023/01/25 06:55:22;;;;;;;29.40;16.70;;;;;;;;;;5055093;28;20175;-75
2023/01/25 06:57:48;;;;;;;34.67;20.83;;;;;;;;;;5053064;28;20214;-75
2023/01/25 07:00:15;;;;;;;31.58;17.95;;;;;;;;;;5069761;28;20190;-75
2023/01/25 07:02:41;;;;;;;30.25;16.20;;;;;;;;;;5066320;28;20300;-76
2023/01/25 07:05:08;;;;;;;26.20;14.98;;;;;;;;;;5065663;28;20266;-76
2023/01/25 07:07:47;;;;;;;27.50;17.70;;;;;;;;;;5060577;28;20198;-78
2023/01/25 07:13:00;;;;;;;30.42;16.42;;;;;;;;;;5026253;28;20251;-76
2023/01/25 07:15:35;;;;;;;33.63;19.60;;;;;;;;;;5033196;28;20265;-77
2023/01/25 07:18:10;;;;;;;28.00;17.77;;;;;;;;;;5028931;28;20677;-77
2023/01/25 07:20:41;;;;;;;30.40;19.33;;;;;;;;;;5041606;28;20203;-75
2023/01/25 07:23:12;;;;;;;27.67;16.30;;;;;;;;;;5026602;28;20243;-76
2023/01/25 07:25:43;;;;;;;33.25;19.73;;;;;;;;;;5032729;28;20179;-75
2023/01/25 07:28:09;;;;;;;27.23;14.90;;;;;;;;;;5032582;28;20218;-75
2023/01/25 07:30:38;;;;;;;28.07;17.23;;;;;;;;;;5052584;28;20286;-75
2023/01/25 07:33:07;;;;;;;34.22;20.50;;;;;;;;;;5023233;28;20410;-76
2023/01/25 07:35:33;;;;;;;32.88;19.25;;;;;;;;;;5037605;28;20188;-76
2023/01/25 07:38:04;;;;;;;35.83;20.90;;;;;;;;;;5037001;28;20721;-75
2023/01/25 07:40:30;;;;;;;38.38;20.90;;;;;;;;;;5022763;28;20691;-76
2023/01/25 07:42:57;;;;;;;31.88;15.10;;;;;;;;;;5014557;28;20659;-75
2023/01/25 07:45:29;;;;;;;36.35;20.08;;;;;;;;;;5007000;28;20184;-76
2023/01/25 07:47:58;;;;;;;34.97;19.27;;;;;;;;;;5025495;28;20196;-77
2023/01/25 07:50:25;;;;;;;32.05;18.65;;;;;;;;;;5038467;28;20204;-76
2023/01/25 07:52:51;;;;;;;35.67;21.48;;;;;;;;;;5023797;28;22435;-75
2023/01/25 07:55:17;;;;;;;43.97;20.87;;;;;;;;;;5030472;28;20495;-76
2023/01/25 07:57:43;;;;;;;36.25;21.20;;;;;;;;;;5027049;28;20431;-76
2023/01/25 08:00:11;;;;;;;34.10;19.40;;;;;;;;;;5037992;28;20188;-76
2023/01/25 08:02:38;;;;;;;32.03;18.40;;;;;;;;;;5037854;28;20445;-75
2023/01/25 08:05:05;;;;;;;31.48;18.30;;;;;;;;;;5036789;28;20759;-75
2023/01/25 08:07:31;;;;;;;39.30;20.65;;;;;;;;;;5017310;28;20276;-76
2023/01/25 08:09:57;;;;;;;37.13;20.15;;;;;;;;;;5043376;28;20174;-76
2023/01/25 08:12:25;;;;;;;36.40;19.83;;;;;;;;;;5040578;28;20375;-77
2023/01/25 08:14:51;;;;;;;33.55;21.23;;;;;;;;;;5044571;28;20303;-77
2023/01/25 08:17:17;;;;;;;39.05;20.02;;;;;;;;;;5059763;28;20274;-75
2023/01/25 08:19:43;;;;;;;38.87;20.10;;;;;;;;;;5058970;28;20388;-75
2023/01/25 08:22:11;;;;;;;37.63;19.73;;;;;;;;;;5058347;28;20468;-75
2023/01/25 08:24:37;;;;;;;41.72;22.35;;;;;;;;;;5058576;28;20440;-76
2023/01/25 08:27:03;;;;;;;36.20;21.50;;;;;;;;;;5061299;28;20198;-76
2023/01/25 08:29:29;;;;;;;39.83;20.37;;;;;;;;;;5054495;28;20568;-76
2023/01/25 08:31:55;;;;;;;37.70;20.30;;;;;;;;;;5060831;28;20961;-76
2023/01/25 08:34:21;;;;;;;36.17;22.10;;;;;;;;;;5026917;28;20549;-75
2023/01/25 08:36:48;;;;;;;37.07;20.37;;;;;;;;;;5062597;28;20278;-76
2023/01/25 08:39:16;;;;;;;31.52;17.13;;;;;;;;;;5053213;28;20801;-76
2023/01/25 08:41:44;;;;;;;39.10;21.15;;;;;;;;;;5038819;28;20190;-75
2023/01/25 08:44:11;;;;;;;41.05;21.35;;;;;;;;;;5039004;28;20631;-75
2023/01/25 08:46:37;;;;;;;37.58;20.23;;;;;;;;;;5061933;28;20206;-76
2023/01/25 08:49:03;;;;;;;41.40;22.60;;;;;;;;;;5061954;28;20274;-80
2023/01/25 08:51:30;;;;;;;39.35;20.65;;;;;;;;;;5058669;28;20472;-75
2023/01/25 08:53:56;;;;;;;42.35;22.70;;;;;;;;;;5058195;28;20188;-76
2023/01/25 08:56:22;;;;;;;40.95;22.20;;;;;;;;;;5047353;28;20226;-76
2023/01/25 08:58:51;;;;;;;39.72;23.20;;;;;;;;;;5064171;28;20179;-76
2023/01/25 09:01:20;;;;;;;42.47;23.77;;;;;;;;;;5037629;28;20252;-76
2023/01/25 09:03:47;;;;;;;43.13;23.13;;;;;;;;;;5055364;28;20191;-77
2023/01/25 09:06:13;;;;;;;37.25;20.95;;;;;;;;;;5030285;28;20194;-75
2023/01/25 09:08:40;;;;;;;40.28;23.00;;;;;;;;;;5062456;28;20190;-76
2023/01/25 09:11:10;;;;;;;38.88;21.88;;;;;;;;;;5067284;28;20206;-77
2023/01/25 09:13:36;;;;;;;40.53;23.48;;;;;;;;;;5061100;28;20179;-77
2023/01/25 09:16:03;;;;;;;37.35;22.00;;;;;;;;;;5051444;28;20223;-76
2023/01/25 09:18:29;;;;;;;44.25;24.00;;;;;;;;;;5051816;28;20258;-76
2023/01/25 09:20:55;;;;;;;47.70;24.83;;;;;;;;;;5039362;28;20204;-76
2023/01/25 09:23:22;;;;;;;37.37;22.93;;;;;;;;;;5066053;28;20565;-76
2023/01/25 09:25:49;;;;;;;44.53;24.35;;;;;;;;;;5040148;28;20445;-74
2023/01/25 09:28:15;;;;;;;51.25;27.60;;;;;;;;;;5062440;28;20673;-75
2023/01/25 09:30:41;;;;;;;43.37;24.07;;;;;;;;;;5055113;28;20216;-76
2023/01/25 09:33:07;;;;;;;43.45;23.95;;;;;;;;;;5060123;28;20419;-75
2023/01/25 09:35:36;;;;;;;41.63;25.45;;;;;;;;;;5050931;28;20238;-75
2023/01/25 09:38:02;;;;;;;41.60;22.88;;;;;;;;;;5043811;28;20198;-76
2023/01/25 09:40:33;;;;;;;36.42;20.95;;;;;;;;;;5053223;28;20194;-74
2023/01/25 09:43:14;;;;;;;41.13;21.48;;;;;;;;;;5056607;28;20237;-76
2023/01/25 09:45:40;;;;;;;37.15;20.00;;;;;;;;;;5057446;28;20288;-75
2023/01/25 09:48:28;;;;;;;41.30;22.67;;;;;;;;;;5047444;28;20705;-74
2023/01/25 09:51:06;;;;;;;35.00;19.33;;;;;;;;;;5052950;28;20876;-75
2023/01/25 09:53:34;;;;;;;32.08;21.48;;;;;;;;;;5063768;28;20571;-75
2023/01/25 09:56:03;;;;;;;42.72;23.70;;;;;;;;;;5059979;28;20190;-75
2023/01/25 09:58:38;;;;;;;47.63;24.70;;;;;;;;;;5045865;28;20189;-75
2023/01/25 10:01:12;;;;;;;34.42;19.58;;;;;;;;;;5066098;28;20410;-75
2023/01/25 10:03:38;;;;;;;35.97;19.95;;;;;;;;;;5057225;28;20186;-75
2023/01/25 10:06:04;;;;;;;41.92;23.73;;;;;;;;;;5037158;28;20327;-76
2023/01/25 10:08:49;;;;;;;41.40;25.07;;;;;;;;;;5053532;28;20705;-75
2023/01/25 10:11:28;;;;;;;40.28;23.70;;;;;;;;;;5056172;28;20935;-74
2023/01/25 10:13:55;;;;;;;47.40;24.00;;;;;;;;;;5057531;28;20189;-75
2023/01/25 10:16:28;;;;;;;41.77;24.03;;;;;;;;;;5091339;28;20716;-77
2023/01/25 10:19:05;;;;;;;41.30;23.13;;;;;;;;;;5082454;28;20532;-76
2023/01/25 10:21:42;;;;;;;38.70;20.48;;;;;;;;;;5089469;28;20246;-76
2023/01/25 10:24:08;;;;;;;35.15;19.80;;;;;;;;;;5082432;28;20731;-76
2023/01/25 10:26:35;;;;;;;39.70;23.38;;;;;;;;;;5067547;28;20766;-77
2023/01/25 10:29:20;;;;;;;43.20;23.67;;;;;;;;;;5082997;28;20558;-76
2023/01/25 10:31:49;;;;;;;41.28;25.10;;;;;;;;;;5095824;28;20400;-75
2023/01/25 10:34:19;;;;;;;40.95;23.40;;;;;;;;;;5082232;28;20208;-77
2023/01/25 10:36:47;;;;;;;36.70;22.30;;;;;;;;;;5075032;28;20367;-78
2023/01/25 10:39:12;;;;;;;36.15;18.52;;;;;;;;;;5076627;28;20230;-75
2023/01/25 10:41:40;;;;;;;34.80;20.17;;;;;;;;;;5091647;28;20262;-77
2023/01/25 10:44:25;;;;;;;40.25;21.25;;;;;;;;;;5069895;28;20455;-76
2023/01/25 10:46:51;;;;;;;39.45;24.10;;;;;;;;;;5085751;28;20199;-75
2023/01/25 10:49:27;;;;;;;43.50;25.13;;;;;;;;;;5082847;28;20617;-77
2023/01/25 10:51:55;;;;;;;41.45;26.15;;;;;;;;;;5067788;28;20433;-76
2023/01/25 10:54:21;;;;;;;45.03;26.17;;;;;;;;;;5080715;28;20189;-75
2023/01/25 10:56:48;;;;;;;41.72;25.05;;;;;;;;;;5077618;28;20210;-75
2023/01/25 10:59:21;;;;;;;35.42;22.27;;;;;;;;;;5050307;28;20284;-74
2023/01/25 11:01:47;;;;;;;37.65;22.20;;;;;;;;;;5062398;28;20256;-75
2023/01/25 11:04:30;;;;;;;42.45;25.42;;;;;;;;;;5078442;28;20225;-76
2023/01/25 11:06:56;;;;;;;40.92;22.40;;;;;;;;;;5078228;28;20732;-76
2023/01/25 11:09:22;;;;;;;39.60;22.75;;;;;;;;;;5063318;28;20174;-75
2023/01/25 11:11:55;;;;;;;39.27;23.57;;;;;;;;;;5076594;28;20597;-76
2023/01/25 11:14:23;;;;;;;39.70;21.80;;;;;;;;;;5091892;28;20407;-75
2023/01/25 11:16:49;;;;;;;38.30;21.40;;;;;;;;;;5075940;28;20185;-75
2023/01/25 11:19:32;;;;;;;39.05;21.45;;;;;;;;;;5085229;28;20273;-76
2023/01/25 11:21:59;;;;;;;47.60;23.40;;;;;;;;;;5077777;28;20190;-75
2023/01/25 11:24:26;;;;;;;34.60;20.67;;;;;;;;;;5085285;28;20671;-77
2023/01/25 11:27:10;;;;;;;45.53;24.08;;;;;;;;;;5081325;28;20474;-76
2023/01/25 11:29:36;;;;;;;43.75;23.58;;;;;;;;;;5060880;28;20174;-75
2023/01/25 11:32:03;;;;;;;36.33;20.70;;;;;;;;;;5077039;28;20214;-75
2023/01/25 11:34:30;;;;;;;46.20;24.80;;;;;;;;;;5058119;28;20424;-76
2023/01/25 11:37:14;;;;;;;43.10;25.60;;;;;;;;;;5077182;28;20469;-75
2023/01/25 11:39:55;;;;;;;38.72;21.00;;;;;;;;;;5082082;28;20265;-75
2023/01/25 11:42:30;;;;;;;45.10;22.08;;;;;;;;;;5076681;28;20280;-76
2023/01/25 11:45:12;;;;;;;37.72;22.17;;;;;;;;;;5061201;28;20223;-75
2023/01/25 11:47:38;;;;;;;49.13;27.55;;;;;;;;;;5071337;28;20193;-76
2023/01/25 11:50:19;;;;;;;46.03;24.90;;;;;;;;;;5083009;28;20194;-76
2023/01/25 11:52:48;;;;;;;53.95;26.63;;;;;;;;;;5072426;28;20442;-76
2023/01/25 11:55:17;;;;;;;47.05;25.77;;;;;;;;;;5084378;28;20575;-78
2023/01/25 11:57:55;;;;;;;42.15;23.25;;;;;;;;;;5072015;28;20195;-75
2023/01/25 12:00:31;;;;;;;45.70;24.40;;;;;;;;;;5085364;28;20628;-77
2023/01/25 12:03:04;;;;;;;49.20;24.63;;;;;;;;;;5073520;28;20194;-76
2023/01/25 12:05:33;;;;;;;46.67;26.73;;;;;;;;;;5074714;28;20200;-75
2023/01/25 12:08:04;;;;;;;44.60;24.95;;;;;;;;;;5080439;28;20199;-76
2023/01/25 12:10:39;;;;;;;45.25;23.75;;;;;;;;;;5084334;28;20205;-76
2023/01/25 12:13:07;;;;;;;48.78;24.65;;;;;;;;;;5076735;28;20410;-80
2023/01/25 12:15:36;;;;;;;46.72;26.10;;;;;;;;;;5082612;28;20185;-76
2023/01/25 12:18:21;;;;;;;44.17;26.10;;;;;;;;;;5080295;28;20193;-76
2023/01/25 12:20:50;;;;;;;37.15;18.15;;;;;;;;;;5078301;28;20162;-76
2023/01/25 12:23:26;;;;;;;44.25;24.02;;;;;;;;;;5074495;28;20205;-78
2023/01/25 12:25:58;;;;;;;41.83;24.43;;;;;;;;;;5070698;22;20234;-78
2023/01/25 12:28:31;;;;;;;40.60;21.67;;;;;;;;;;5063049;28;20716;-78
2023/01/25 12:30:59;;;;;;;48.20;25.10;;;;;;;;;;5043635;28;20484;-77
2023/01/25 12:33:33;;;;;;;45.20;23.70;;;;;;;;;;5045189;28;20833;-77
2023/01/25 12:36:08;;;;;;;46.95;25.17;;;;;;;;;;5060327;28;20407;-80
2023/01/25 12:38:46;;;;;;;51.88;27.42;;;;;;;;;;5045633;28;20182;-77
2023/01/25 12:41:25;;;;;;;43.63;24.10;;;;;;;;;;5067216;28;20487;-77
2023/01/25 12:43:57;;;;;;;49.42;25.25;;;;;;;;;;5056323;28;20195;-80
2023/01/25 12:46:28;;;;;;;48.35;24.42;;;;;;;;;;5057442;28;20199;-78
2023/01/25 12:48:57;;;;;;;41.30;24.67;;;;;;;;;;5043925;28;20233;-77
2023/01/25 12:51:23;;;;;;;51.10;27.58;;;;;;;;;;5043398;28;20250;-77
2023/01/25 12:53:53;;;;;;;43.83;22.50;;;;;;;;;;5065499;28;20517;-77
2023/01/25 12:56:39;;;;;;;47.88;25.90;;;;;;;;;;5061542;28;20446;-78
2023/01/25 12:59:16;;;;;;;41.13;23.65;;;;;;;;;;5061105;28;20214;-79
2023/01/25 13:01:59;;;;;;;40.53;21.90;;;;;;;;;;5065181;28;20189;-79
2023/01/25 13:04:45;;;;;;;39.40;21.17;;;;;;;;;;5051423;28;20182;-78
2023/01/25 13:07:29;;;;;;;47.20;22.35;;;;;;;;;;5058526;28;20687;-77
2023/01/25 13:10:13;;;;;;;45.75;25.33;;;;;;;;;;5050312;28;20187;-77
2023/01/25 13:12:55;;;;;;;43.38;21.45;;;;;;;;;;5064046;28;20179;-78
2023/01/25 13:15:42;;;;;;;42.60;21.77;;;;;;;;;;5052382;28;20194;-77
2023/01/25 13:18:31;;;;;;;49.65;26.75;;;;;;;;;;5039520;28;20679;-76
2023/01/25 13:20:58;;;;;;;37.45;19.02;;;;;;;;;;5046996;28;20551;-76
2023/01/25 13:23:27;;;;;;;43.95;22.33;;;;;;;;;;5061435;28;20570;-78
2023/01/25 13:26:12;;;;;;;58.95;25.58;;;;;;;;;;5035587;28;20234;-78
2023/01/25 13:28:38;;;;;;;46.58;23.70;;;;;;;;;;5060091;28;20198;-76
2023/01/25 13:31:03;;;;;;;38.37;21.43;;;;;;;;;;5047783;28;20221;-77
2023/01/25 13:33:34;;;;;;;43.10;22.07;;;;;;;;;;5055545;28;20493;-77
2023/01/25 13:36:20;;;;;;;47.40;24.92;;;;;;;;;;5048117;28;21139;-77
2023/01/25 13:38:46;;;;;;;41.65;20.52;;;;;;;;;;5035717;28;20474;-76
2023/01/25 13:41:16;;;;;;;49.13;22.73;;;;;;;;;;5053996;28;20206;-76
2023/01/25 13:43:43;;;;;;;50.08;23.08;;;;;;;;;;5053680;28;21090;-77
2023/01/25 13:46:14;;;;;;;47.90;25.88;;;;;;;;;;5030618;28;20194;-77
2023/01/25 13:48:49;;;;;;;51.75;27.65;;;;;;;;;;5058596;28;20522;-80
2023/01/25 13:51:17;;;;;;;47.92;26.38;;;;;;;;;;5033816;28;20226;-80
2023/01/25 13:53:54;;;;;;;49.28;26.13;;;;;;;;;;5063480;28;20531;-79
2023/01/25 13:56:28;;;;;;;49.10;25.02;;;;;;;;;;5059135;28;20203;-77
2023/01/25 13:58:54;;;;;;;49.83;25.23;;;;;;;;;;5064533;28;20400;-77
2023/01/25 14:01:22;;;;;;;44.53;20.15;;;;;;;;;;5048236;28;20447;-76
2023/01/25 14:03:52;;;;;;;52.35;26.70;;;;;;;;;;5069889;28;20240;-78
2023/01/25 14:06:36;;;;;;;53.42;27.85;;;;;;;;;;5059218;28;20243;-76
2023/01/25 14:09:23;;;;;;;49.22;24.45;;;;;;;;;;5049848;28;20171;-78
2023/01/25 14:11:54;;;;;;;49.97;27.00;;;;;;;;;;5056447;28;20467;-78
2023/01/25 14:14:28;;;;;;;47.25;25.17;;;;;;;;;;5066198;28;20801;-76
2023/01/25 14:17:15;;;;;;;52.85;27.42;;;;;;;;;;5058464;28;20203;-77
2023/01/25 14:19:48;;;;;;;60.25;28.35;;;;;;;;;;5058357;28;20221;-78
2023/01/25 14:22:17;;;;;;;55.95;25.38;;;;;;;;;;5054954;28;20192;-77
2023/01/25 14:24:43;;;;;;;55.72;27.67;;;;;;;;;;5057362;28;20183;-76
2023/01/25 14:27:32;;;;;;;51.57;27.10;;;;;;;;;;5052523;28;20218;-78
2023/01/25 14:29:58;;;;;;;47.47;25.35;;;;;;;;;;5046790;28;20430;-78